sensor_id;sensor_type;location;lat;lon;timestamp;pressure;altitude;pressure_sealevel;temperature;humidity
7768;BME280;3928;42.626;23.382;2023-08-24T00:00:33;94330.25;;;26.65;51.40
7768;BME280;3928;42.626;23.382;2023-08-24T00:03:00;94329.88;;;26.58;51.59
7768;BME280;3928;42.626;23.382;2023-08-24T00:05:29;94321.53;;;26.53;51.80
7768;BME280;3928;42.626;23.382;2023-08-24T00:07:55;94342.22;;;26.46;51.95
7768;BME280;3928;42.626;23.382;2023-08-24T00:10:22;94326.91;;;26.40;52.21
7768;BME280;3928;42.626;23.382;2023-08-24T00:12:49;94334.19;;;26.37;52.60
7768;BME280;3928;42.626;23.382;2023-08-24T00:15:16;94329.84;;;26.36;52.80
7768;BME280;3928;42.626;23.382;2023-08-24T00:17:44;94333.69;;;26.32;52.49
7768;BME280;3928;42.626;23.382;2023-08-24T00:20:11;94328.19;;;26.35;52.45
7768;BME280;3928;42.626;23.382;2023-08-24T00:22:39;94325.09;;;26.18;53.13
7768;BME280;3928;42.626;23.382;2023-08-24T00:25:07;94326.47;;;26.00;53.55
7768;BME280;3928;42.626;23.382;2023-08-24T00:27:34;94296.34;;;25.82;53.70
7768;BME280;3928;42.626;23.382;2023-08-24T00:30:03;94320.88;;;25.93;53.86
7768;BME280;3928;42.626;23.382;2023-08-24T00:32:31;94319.78;;;25.85;54.31
7768;BME280;3928;42.626;23.382;2023-08-24T00:35:01;94318.13;;;26.06;53.80
7768;BME280;3928;42.626;23.382;2023-08-24T00:37:28;94309.50;;;26.04;53.40
7768;BME280;3928;42.626;23.382;2023-08-24T00:39:55;94315.84;;;26.02;53.83
7768;BME280;3928;42.626;23.382;2023-08-24T00:42:22;94315.25;;;25.98;53.95
7768;BME280;3928;42.626;23.382;2023-08-24T00:44:50;94315.25;;;25.98;54.43
7768;BME280;3928;42.626;23.382;2023-08-24T00:47:17;94314.78;;;25.93;54.73
7768;BME280;3928;42.626;23.382;2023-08-24T00:49:44;94316.88;;;25.77;54.81
7768;BME280;3928;42.626;23.382;2023-08-24T00:52:12;94314.59;;;25.72;55.15
7768;BME280;3928;42.626;23.382;2023-08-24T00:54:40;94322.38;;;25.74;55.06
7768;BME280;3928;42.626;23.382;2023-08-24T00:57:07;94331.34;;;25.71;55.36
7768;BME280;3928;42.626;23.382;2023-08-24T00:59:34;94320.53;;;25.63;55.88
7768;BME280;3928;42.626;23.382;2023-08-24T01:02:02;94332.19;;;25.83;54.90
7768;BME280;3928;42.626;23.382;2023-08-24T01:04:29;94329.81;;;25.91;54.97
7768;BME280;3928;42.626;23.382;2023-08-24T01:06:56;94327.44;;;25.99;54.98
7768;BME280;3928;42.626;23.382;2023-08-24T01:09:24;94326.59;;;25.99;54.82
7768;BME280;3928;42.626;23.382;2023-08-24T01:11:59;94326.75;;;25.62;56.35
7768;BME280;3928;42.626;23.382;2023-08-24T01:14:36;94335.84;;;25.45;56.82
7768;BME280;3928;42.626;23.382;2023-08-24T01:17:09;94332.16;;;25.36;57.50
7768;BME280;3928;42.626;23.382;2023-08-24T01:19:41;94323.94;;;25.17;57.99
7768;BME280;3928;42.626;23.382;2023-08-24T01:22:22;94321.69;;;25.00;59.19
7768;BME280;3928;42.626;23.382;2023-08-24T01:24:58;94324.56;;;24.84;60.01
7768;BME280;3928;42.626;23.382;2023-08-24T01:27:32;94327.13;;;24.73;60.90
7768;BME280;3928;42.626;23.382;2023-08-24T01:30:00;94313.50;;;24.68;60.69
7768;BME280;3928;42.626;23.382;2023-08-24T01:32:30;94325.56;;;24.70;60.90
7768;BME280;3928;42.626;23.382;2023-08-24T01:34:57;94321.78;;;24.74;60.72
7768;BME280;3928;42.626;23.382;2023-08-24T01:37:24;94322.81;;;24.72;60.75
7768;BME280;3928;42.626;23.382;2023-08-24T01:39:57;94321.13;;;24.71;60.49
7768;BME280;3928;42.626;23.382;2023-08-24T01:42:27;94323.66;;;24.72;60.65
7768;BME280;3928;42.626;23.382;2023-08-24T01:44:58;94330.66;;;24.85;60.29
7768;BME280;3928;42.626;23.382;2023-08-24T01:47:29;94321.94;;;24.84;59.52
7768;BME280;3928;42.626;23.382;2023-08-24T01:49:57;94327.63;;;24.78;60.23
7768;BME280;3928;42.626;23.382;2023-08-24T01:52:24;94322.50;;;24.76;60.16
7768;BME280;3928;42.626;23.382;2023-08-24T01:54:52;94326.50;;;24.69;60.32
7768;BME280;3928;42.626;23.382;2023-08-24T01:57:19;94329.31;;;24.79;60.28
7768;BME280;3928;42.626;23.382;2023-08-24T01:59:46;94322.09;;;24.70;60.60
7768;BME280;3928;42.626;23.382;2023-08-24T02:02:14;94314.69;;;24.64;60.84
7768;BME280;3928;42.626;23.382;2023-08-24T02:04:41;94313.66;;;24.54;60.71
7768;BME280;3928;42.626;23.382;2023-08-24T02:07:08;94307.69;;;24.52;61.16
7768;BME280;3928;42.626;23.382;2023-08-24T02:09:35;94306.91;;;24.49;60.49
7768;BME280;3928;42.626;23.382;2023-08-24T02:12:02;94315.63;;;24.63;61.15
7768;BME280;3928;42.626;23.382;2023-08-24T02:14:29;94320.06;;;24.73;60.25
7768;BME280;3928;42.626;23.382;2023-08-24T02:16:57;94317.53;;;24.85;60.96
7768;BME280;3928;42.626;23.382;2023-08-24T02:19:25;94326.75;;;25.03;59.69
7768;BME280;3928;42.626;23.382;2023-08-24T02:21:52;94333.53;;;25.05;58.99
7768;BME280;3928;42.626;23.382;2023-08-24T02:24:19;94319.97;;;25.12;58.41
7768;BME280;3928;42.626;23.382;2023-08-24T02:26:45;94332.81;;;25.03;58.94
7768;BME280;3928;42.626;23.382;2023-08-24T02:29:13;94332.31;;;24.98;58.87
7768;BME280;3928;42.626;23.382;2023-08-24T02:31:39;94340.44;;;24.83;59.41
7768;BME280;3928;42.626;23.382;2023-08-24T02:34:07;94338.38;;;24.75;59.47
7768;BME280;3928;42.626;23.382;2023-08-24T02:36:35;94339.44;;;24.60;60.09
7768;BME280;3928;42.626;23.382;2023-08-24T02:39:02;94344.19;;;24.55;60.74
7768;BME280;3928;42.626;23.382;2023-08-24T02:41:30;94345.03;;;24.55;60.33
7768;BME280;3928;42.626;23.382;2023-08-24T02:43:57;94328.00;;;24.61;59.83
7768;BME280;3928;42.626;23.382;2023-08-24T02:46:24;94337.34;;;24.65;60.20
7768;BME280;3928;42.626;23.382;2023-08-24T02:48:51;94335.50;;;24.78;60.31
7768;BME280;3928;42.626;23.382;2023-08-24T02:51:17;94328.66;;;24.88;59.67
7768;BME280;3928;42.626;23.382;2023-08-24T02:53:47;94331.59;;;24.84;60.01
7768;BME280;3928;42.626;23.382;2023-08-24T02:56:14;94323.13;;;24.80;60.94
7768;BME280;3928;42.626;23.382;2023-08-24T02:58:41;94306.41;;;24.81;60.66
7768;BME280;3928;42.626;23.382;2023-08-24T03:01:08;94317.28;;;25.00;60.39
7768;BME280;3928;42.626;23.382;2023-08-24T03:03:35;94314.69;;;24.88;60.37
7768;BME280;3928;42.626;23.382;2023-08-24T03:06:04;94312.91;;;24.88;60.26
7768;BME280;3928;42.626;23.382;2023-08-24T03:08:32;94310.78;;;24.93;60.71
7768;BME280;3928;42.626;23.382;2023-08-24T03:11:01;94315.41;;;25.02;59.85
7768;BME280;3928;42.626;23.382;2023-08-24T03:13:28;94315.69;;;25.11;58.90
7768;BME280;3928;42.626;23.382;2023-08-24T03:15:55;94305.06;;;25.12;58.65
7768;BME280;3928;42.626;23.382;2023-08-24T03:18:22;94310.19;;;25.14;57.62
7768;BME280;3928;42.626;23.382;2023-08-24T03:20:49;94315.31;;;24.91;58.49
7768;BME280;3928;42.626;23.382;2023-08-24T03:23:16;94308.34;;;24.66;59.27
7768;BME280;3928;42.626;23.382;2023-08-24T03:25:43;94315.94;;;24.58;59.63
7768;BME280;3928;42.626;23.382;2023-08-24T03:28:11;94314.06;;;24.47;60.07
7768;BME280;3928;42.626;23.382;2023-08-24T03:30:44;94313.44;;;24.44;61.12
7768;BME280;3928;42.626;23.382;2023-08-24T03:33:11;94322.00;;;24.59;61.69
7768;BME280;3928;42.626;23.382;2023-08-24T03:35:39;94333.53;;;24.69;60.66
7768;BME280;3928;42.626;23.382;2023-08-24T03:38:06;94346.28;;;24.86;60.68
7768;BME280;3928;42.626;23.382;2023-08-24T03:40:33;94328.84;;;24.85;59.40
7768;BME280;3928;42.626;23.382;2023-08-24T03:43:01;94364.94;;;25.07;58.04
7768;BME280;3928;42.626;23.382;2023-08-24T03:45:29;94364.16;;;24.81;58.69
7768;BME280;3928;42.626;23.382;2023-08-24T03:47:56;94372.50;;;24.49;60.67
7768;BME280;3928;42.626;23.382;2023-08-24T03:50:23;94374.28;;;24.62;61.10
7768;BME280;3928;42.626;23.382;2023-08-24T03:52:50;94369.09;;;24.73;61.33
7768;BME280;3928;42.626;23.382;2023-08-24T03:55:17;94365.34;;;24.77;60.59
7768;BME280;3928;42.626;23.382;2023-08-24T03:57:44;94372.78;;;24.70;61.39
7768;BME280;3928;42.626;23.382;2023-08-24T04:00:12;94384.25;;;24.69;61.10
7768;BME280;3928;42.626;23.382;2023-08-24T04:02:41;94382.53;;;24.81;61.50
7768;BME280;3928;42.626;23.382;2023-08-24T04:05:08;94378.13;;;24.82;62.16
7768;BME280;3928;42.626;23.382;2023-08-24T04:07:35;94377.59;;;24.89;62.59
7768;BME280;3928;42.626;23.382;2023-08-24T04:10:04;94370.13;;;24.83;63.37
7768;BME280;3928;42.626;23.382;2023-08-24T04:12:31;94369.19;;;24.84;63.58
7768;BME280;3928;42.626;23.382;2023-08-24T04:14:58;94367.81;;;24.91;63.53
7768;BME280;3928;42.626;23.382;2023-08-24T04:17:25;94359.47;;;24.97;63.01
7768;BME280;3928;42.626;23.382;2023-08-24T04:19:53;94359.81;;;25.05;62.91
7768;BME280;3928;42.626;23.382;2023-08-24T04:22:20;94368.53;;;24.93;63.37
7768;BME280;3928;42.626;23.382;2023-08-24T04:24:47;94369.97;;;24.97;63.24
7768;BME280;3928;42.626;23.382;2023-08-24T04:27:14;94340.53;;;24.81;63.34
7768;BME280;3928;42.626;23.382;2023-08-24T04:29:41;94361.19;;;24.98;62.85
7768;BME280;3928;42.626;23.382;2023-08-24T04:32:08;94359.38;;;24.75;62.09
7768;BME280;3928;42.626;23.382;2023-08-24T04:34:35;94363.41;;;24.42;62.72
7768;BME280;3928;42.626;23.382;2023-08-24T04:37:03;94357.72;;;24.23;62.90
7768;BME280;3928;42.626;23.382;2023-08-24T04:39:30;94357.41;;;24.02;63.44
7768;BME280;3928;42.626;23.382;2023-08-24T04:41:56;94360.56;;;24.07;62.97
7768;BME280;3928;42.626;23.382;2023-08-24T04:44:23;94370.09;;;24.08;63.55
7768;BME280;3928;42.626;23.382;2023-08-24T04:46:50;94370.72;;;24.12;63.17
7768;BME280;3928;42.626;23.382;2023-08-24T04:49:17;94382.63;;;24.30;63.65
7768;BME280;3928;42.626;23.382;2023-08-24T04:51:44;94384.50;;;24.41;63.75
7768;BME280;3928;42.626;23.382;2023-08-24T04:54:12;94379.25;;;24.54;61.55
7768;BME280;3928;42.626;23.382;2023-08-24T04:56:39;94381.88;;;24.54;60.91
7768;BME280;3928;42.626;23.382;2023-08-24T04:59:06;94383.44;;;24.56;60.72
7768;BME280;3928;42.626;23.382;2023-08-24T05:01:34;94382.06;;;24.38;60.94
7768;BME280;3928;42.626;23.382;2023-08-24T05:04:01;94374.00;;;24.28;61.70
7768;BME280;3928;42.626;23.382;2023-08-24T05:06:27;94384.38;;;24.30;62.23
7768;BME280;3928;42.626;23.382;2023-08-24T05:08:55;94372.00;;;24.19;61.62
7768;BME280;3928;42.626;23.382;2023-08-24T05:11:26;94382.50;;;24.44;61.35
7768;BME280;3928;42.626;23.382;2023-08-24T05:13:54;94376.06;;;24.61;61.78
7768;BME280;3928;42.626;23.382;2023-08-24T05:16:22;94359.38;;;24.62;61.12
7768;BME280;3928;42.626;23.382;2023-08-24T05:18:49;94380.31;;;24.88;61.20
7768;BME280;3928;42.626;23.382;2023-08-24T05:21:15;94381.34;;;25.11;61.36
7768;BME280;3928;42.626;23.382;2023-08-24T05:23:43;94383.34;;;25.31;59.73
7768;BME280;3928;42.626;23.382;2023-08-24T05:26:10;94396.75;;;25.39;59.62
7768;BME280;3928;42.626;23.382;2023-08-24T05:28:38;94390.59;;;25.51;59.73
7768;BME280;3928;42.626;23.382;2023-08-24T05:31:05;94389.31;;;25.57;59.73
7768;BME280;3928;42.626;23.382;2023-08-24T05:33:32;94388.56;;;25.55;59.63
7768;BME280;3928;42.626;23.382;2023-08-24T05:35:58;94383.44;;;25.53;59.08
7768;BME280;3928;42.626;23.382;2023-08-24T05:38:25;94377.41;;;25.40;58.80
7768;BME280;3928;42.626;23.382;2023-08-24T05:40:52;94385.47;;;25.26;59.94
7768;BME280;3928;42.626;23.382;2023-08-24T05:43:19;94385.53;;;25.13;60.38
7768;BME280;3928;42.626;23.382;2023-08-24T05:45:48;94384.69;;;25.13;61.03
7768;BME280;3928;42.626;23.382;2023-08-24T05:48:15;94407.69;;;25.33;61.00
7768;BME280;3928;42.626;23.382;2023-08-24T05:50:44;94397.78;;;25.49;61.55
7768;BME280;3928;42.626;23.382;2023-08-24T05:53:11;94392.31;;;25.63;59.83
7768;BME280;3928;42.626;23.382;2023-08-24T05:55:38;94407.94;;;25.78;59.47
7768;BME280;3928;42.626;23.382;2023-08-24T05:58:05;94416.81;;;25.88;60.19
7768;BME280;3928;42.626;23.382;2023-08-24T06:00:32;94409.81;;;26.00;60.29
7768;BME280;3928;42.626;23.382;2023-08-24T06:03:01;94401.22;;;26.09;59.50
7768;BME280;3928;42.626;23.382;2023-08-24T06:05:29;94407.31;;;26.09;58.57
7768;BME280;3928;42.626;23.382;2023-08-24T06:07:56;94409.25;;;26.07;58.16
7768;BME280;3928;42.626;23.382;2023-08-24T06:10:23;94413.03;;;26.03;58.32
7768;BME280;3928;42.626;23.382;2023-08-24T06:12:51;94418.56;;;26.11;59.84
7768;BME280;3928;42.626;23.382;2023-08-24T06:15:18;94408.31;;;26.19;59.24
7768;BME280;3928;42.626;23.382;2023-08-24T06:17:49;94408.19;;;26.32;59.04
7768;BME280;3928;42.626;23.382;2023-08-24T06:20:17;94415.06;;;26.46;57.53
7768;BME280;3928;42.626;23.382;2023-08-24T06:22:44;94410.28;;;26.62;56.90
7768;BME280;3928;42.626;23.382;2023-08-24T06:25:11;94426.78;;;26.87;56.54
7768;BME280;3928;42.626;23.382;2023-08-24T06:27:38;94423.19;;;26.99;56.60
7768;BME280;3928;42.626;23.382;2023-08-24T06:30:06;94415.53;;;27.18;56.96
7768;BME280;3928;42.626;23.382;2023-08-24T06:32:33;94420.53;;;27.32;57.13
7768;BME280;3928;42.626;23.382;2023-08-24T06:35:00;94420.50;;;27.44;56.92
7768;BME280;3928;42.626;23.382;2023-08-24T06:37:28;94420.25;;;27.47;56.39
7768;BME280;3928;42.626;23.382;2023-08-24T06:39:55;94419.28;;;27.59;56.93
7768;BME280;3928;42.626;23.382;2023-08-24T06:42:22;94413.63;;;27.63;56.50
7768;BME280;3928;42.626;23.382;2023-08-24T06:44:49;94417.09;;;27.75;56.06
7768;BME280;3928;42.626;23.382;2023-08-24T06:47:16;94416.34;;;27.84;56.10
7768;BME280;3928;42.626;23.382;2023-08-24T06:49:43;94410.28;;;27.93;56.14
7768;BME280;3928;42.626;23.382;2023-08-24T06:52:10;94407.22;;;28.09;55.66
7768;BME280;3928;42.626;23.382;2023-08-24T06:54:38;94419.72;;;28.28;55.83
7768;BME280;3928;42.626;23.382;2023-08-24T06:57:05;94409.56;;;28.44;54.41
7768;BME280;3928;42.626;23.382;2023-08-24T06:59:32;94419.97;;;28.67;54.26
7768;BME280;3928;42.626;23.382;2023-08-24T07:01:59;94421.22;;;28.93;53.66
7768;BME280;3928;42.626;23.382;2023-08-24T07:04:26;94419.28;;;28.95;52.78
7768;BME280;3928;42.626;23.382;2023-08-24T07:06:53;94409.31;;;29.18;52.22
7768;BME280;3928;42.626;23.382;2023-08-24T07:09:20;94415.22;;;29.41;51.30
7768;BME280;3928;42.626;23.382;2023-08-24T07:11:49;94403.97;;;29.39;51.56
7768;BME280;3928;42.626;23.382;2023-08-24T07:14:15;94410.53;;;29.54;50.38
7768;BME280;3928;42.626;23.382;2023-08-24T07:16:42;94396.91;;;29.68;49.33
7768;BME280;3928;42.626;23.382;2023-08-24T07:19:09;94412.66;;;29.99;49.57
7768;BME280;3928;42.626;23.382;2023-08-24T07:21:36;94406.81;;;30.24;50.16
7768;BME280;3928;42.626;23.382;2023-08-24T07:24:03;94410.94;;;30.46;48.71
7768;BME280;3928;42.626;23.382;2023-08-24T07:26:30;94399.47;;;30.65;48.01
7768;BME280;3928;42.626;23.382;2023-08-24T07:28:59;94389.50;;;30.87;47.63
7768;BME280;3928;42.626;23.382;2023-08-24T07:31:26;94394.19;;;31.02;46.12
7768;BME280;3928;42.626;23.382;2023-08-24T07:33:53;94366.34;;;31.16;45.74
7768;BME280;3928;42.626;23.382;2023-08-24T07:36:20;94387.88;;;31.40;45.17
7768;BME280;3928;42.626;23.382;2023-08-24T07:38:46;94396.44;;;31.52;45.00
7768;BME280;3928;42.626;23.382;2023-08-24T07:41:13;94386.97;;;31.50;43.54
7768;BME280;3928;42.626;23.382;2023-08-24T07:43:42;94392.75;;;31.63;43.54
7768;BME280;3928;42.626;23.382;2023-08-24T07:46:11;94392.44;;;31.66;43.41
7768;BME280;3928;42.626;23.382;2023-08-24T07:48:37;94394.34;;;31.74;44.03
7768;BME280;3928;42.626;23.382;2023-08-24T07:51:04;94395.56;;;31.79;43.58
7768;BME280;3928;42.626;23.382;2023-08-24T07:53:32;94390.50;;;31.86;43.96
7768;BME280;3928;42.626;23.382;2023-08-24T07:56:00;94391.38;;;31.94;43.63
7768;BME280;3928;42.626;23.382;2023-08-24T07:58:27;94393.53;;;32.09;43.37
7768;BME280;3928;42.626;23.382;2023-08-24T08:00:54;94374.16;;;32.16;42.68
7768;BME280;3928;42.626;23.382;2023-08-24T08:03:22;94389.03;;;32.53;42.45
7768;BME280;3928;42.626;23.382;2023-08-24T08:05:49;94390.00;;;32.78;41.52
7768;BME280;3928;42.626;23.382;2023-08-24T08:08:16;94397.78;;;32.97;41.15
7768;BME280;3928;42.626;23.382;2023-08-24T08:10:43;94393.22;;;33.15;40.63
7768;BME280;3928;42.626;23.382;2023-08-24T08:13:10;94394.84;;;33.42;39.38
7768;BME280;3928;42.626;23.382;2023-08-24T08:15:37;94401.88;;;33.52;40.00
7768;BME280;3928;42.626;23.382;2023-08-24T08:18:04;94395.84;;;33.50;39.02
7768;BME280;3928;42.626;23.382;2023-08-24T08:20:33;94399.41;;;33.66;39.55
7768;BME280;3928;42.626;23.382;2023-08-24T08:22:59;94397.09;;;33.80;39.33
7768;BME280;3928;42.626;23.382;2023-08-24T08:25:26;94395.13;;;33.98;39.20
7768;BME280;3928;42.626;23.382;2023-08-24T08:27:53;94398.13;;;34.19;37.67
7768;BME280;3928;42.626;23.382;2023-08-24T08:30:20;94390.16;;;34.19;35.69
7768;BME280;3928;42.626;23.382;2023-08-24T08:32:47;94395.81;;;34.24;35.09
7768;BME280;3928;42.626;23.382;2023-08-24T08:35:16;94385.81;;;34.43;35.57
7768;BME280;3928;42.626;23.382;2023-08-24T08:37:45;94384.00;;;34.59;35.05
7768;BME280;3928;42.626;23.382;2023-08-24T08:40:12;94386.28;;;34.87;34.38
7768;BME280;3928;42.626;23.382;2023-08-24T08:42:39;94381.22;;;35.08;35.18
7768;BME280;3928;42.626;23.382;2023-08-24T08:45:08;94372.75;;;35.28;35.26
7768;BME280;3928;42.626;23.382;2023-08-24T08:47:36;94375.50;;;35.51;35.25
7768;BME280;3928;42.626;23.382;2023-08-24T08:50:04;94371.03;;;35.74;33.89
7768;BME280;3928;42.626;23.382;2023-08-24T08:52:31;94369.22;;;35.97;34.09
7768;BME280;3928;42.626;23.382;2023-08-24T08:55:00;94366.03;;;36.25;33.68
7768;BME280;3928;42.626;23.382;2023-08-24T08:57:32;94362.22;;;36.42;32.54
7768;BME280;3928;42.626;23.382;2023-08-24T08:59:59;94360.75;;;36.54;31.66
7768;BME280;3928;42.626;23.382;2023-08-24T09:02:26;94356.53;;;36.75;32.43
7768;BME280;3928;42.626;23.382;2023-08-24T09:04:56;94350.44;;;36.66;31.20
7768;BME280;3928;42.626;23.382;2023-08-24T09:07:23;94350.31;;;36.82;31.67
7768;BME280;3928;42.626;23.382;2023-08-24T09:09:50;94349.47;;;36.44;31.14
7768;BME280;3928;42.626;23.382;2023-08-24T09:12:18;94346.09;;;36.13;31.91
7768;BME280;3928;42.626;23.382;2023-08-24T09:14:45;94344.34;;;36.20;32.21
7768;BME280;3928;42.626;23.382;2023-08-24T09:17:19;94338.16;;;36.42;32.24
7768;BME280;3928;42.626;23.382;2023-08-24T09:19:49;94335.84;;;36.69;32.56
7768;BME280;3928;42.626;23.382;2023-08-24T09:22:16;94340.09;;;36.78;31.37
7768;BME280;3928;42.626;23.382;2023-08-24T09:24:43;94327.59;;;36.93;32.43
7768;BME280;3928;42.626;23.382;2023-08-24T09:27:15;94327.03;;;37.12;31.97
7768;BME280;3928;42.626;23.382;2023-08-24T09:29:47;94328.00;;;37.41;32.02
7768;BME280;3928;42.626;23.382;2023-08-24T09:32:14;94320.63;;;37.64;30.70
7768;BME280;3928;42.626;23.382;2023-08-24T09:34:41;94319.66;;;37.87;30.68
7768;BME280;3928;42.626;23.382;2023-08-24T09:37:13;94311.16;;;38.04;31.40
7768;BME280;3928;42.626;23.382;2023-08-24T09:39:40;94309.56;;;38.10;28.76
7768;BME280;3928;42.626;23.382;2023-08-24T09:42:07;94308.16;;;38.14;30.20
7768;BME280;3928;42.626;23.382;2023-08-24T09:44:34;94306.47;;;38.35;30.21
7768;BME280;3928;42.626;23.382;2023-08-24T09:47:09;94298.97;;;38.51;30.24
7768;BME280;3928;42.626;23.382;2023-08-24T09:49:36;94305.13;;;38.73;30.71
7768;BME280;3928;42.626;23.382;2023-08-24T09:52:06;94294.66;;;38.57;28.36
7768;BME280;3928;42.626;23.382;2023-08-24T09:54:36;94299.88;;;38.65;28.11
7768;BME280;3928;42.626;23.382;2023-08-24T09:57:05;94294.44;;;38.52;29.05
7768;BME280;3928;42.626;23.382;2023-08-24T09:59:34;94296.31;;;38.58;28.79
7768;BME280;3928;42.626;23.382;2023-08-24T10:02:09;94287.81;;;38.76;28.97
7768;BME280;3928;42.626;23.382;2023-08-24T10:04:41;94249.00;;;38.78;28.81
7768;BME280;3928;42.626;23.382;2023-08-24T10:07:10;94281.78;;;39.08;28.16
7768;BME280;3928;42.626;23.382;2023-08-24T10:09:45;94296.25;;;39.14;27.89
7768;BME280;3928;42.626;23.382;2023-08-24T10:12:14;94287.66;;;39.32;27.85
7768;BME280;3928;42.626;23.382;2023-08-24T10:14:52;94277.34;;;39.42;27.11
7768;BME280;3928;42.626;23.382;2023-08-24T10:17:22;94281.13;;;39.54;27.23
7768;BME280;3928;42.626;23.382;2023-08-24T10:19:51;94276.00;;;39.72;27.33
7768;BME280;3928;42.626;23.382;2023-08-24T10:22:19;94279.09;;;39.89;27.48
7768;BME280;3928;42.626;23.382;2023-08-24T10:24:47;94276.25;;;40.11;27.17
7768;BME280;3928;42.626;23.382;2023-08-24T10:27:14;94270.25;;;40.22;26.71
7768;BME280;3928;42.626;23.382;2023-08-24T10:29:41;94268.59;;;40.34;25.04
7768;BME280;3928;42.626;23.382;2023-08-24T10:32:08;94253.31;;;40.28;26.70
7768;BME280;3928;42.626;23.382;2023-08-24T10:34:36;94219.16;;;39.69;24.97
7768;BME280;3928;42.626;23.382;2023-08-24T10:37:08;94262.25;;;38.86;26.09
7768;BME280;3928;42.626;23.382;2023-08-24T10:39:35;94264.97;;;38.58;27.32
7768;BME280;3928;42.626;23.382;2023-08-24T10:42:04;94260.34;;;38.80;28.20
7768;BME280;3928;42.626;23.382;2023-08-24T10:44:35;94255.50;;;39.04;28.15
7768;BME280;3928;42.626;23.382;2023-08-24T10:47:11;94256.53;;;39.03;26.82
7768;BME280;3928;42.626;23.382;2023-08-24T10:49:40;94245.81;;;39.03;27.49
7768;BME280;3928;42.626;23.382;2023-08-24T10:52:16;94261.81;;;38.83;26.92
7768;BME280;3928;42.626;23.382;2023-08-24T10:54:43;94253.53;;;38.78;27.89
7768;BME280;3928;42.626;23.382;2023-08-24T10:57:17;94256.50;;;38.89;27.85
7768;BME280;3928;42.626;23.382;2023-08-24T10:59:45;94248.91;;;39.00;28.44
7768;BME280;3928;42.626;23.382;2023-08-24T11:02:19;94200.72;;;38.78;28.91
7768;BME280;3928;42.626;23.382;2023-08-24T11:05:05;94239.69;;;39.15;29.80
7768;BME280;3928;42.626;23.382;2023-08-24T11:07:32;94238.50;;;38.83;26.81
7768;BME280;3928;42.626;23.382;2023-08-24T11:09:59;94236.16;;;38.67;27.30
7768;BME280;3928;42.626;23.382;2023-08-24T11:12:26;94230.53;;;38.62;27.75
7768;BME280;3928;42.626;23.382;2023-08-24T11:14:53;94231.88;;;38.73;27.61
7768;BME280;3928;42.626;23.382;2023-08-24T11:17:24;94207.28;;;38.69;29.05
7768;BME280;3928;42.626;23.382;2023-08-24T11:19:57;94218.78;;;38.63;28.40
7768;BME280;3928;42.626;23.382;2023-08-24T11:22:25;94221.97;;;38.45;27.64
7768;BME280;3928;42.626;23.382;2023-08-24T11:24:52;94230.03;;;38.17;28.64
7768;BME280;3928;42.626;23.382;2023-08-24T11:27:20;94219.06;;;37.84;29.85
7768;BME280;3928;42.626;23.382;2023-08-24T11:29:58;94224.56;;;37.55;31.18
7768;BME280;3928;42.626;23.382;2023-08-24T11:32:25;94220.78;;;37.49;31.88
7768;BME280;3928;42.626;23.382;2023-08-24T11:34:52;94235.19;;;37.48;30.96
7768;BME280;3928;42.626;23.382;2023-08-24T11:37:19;94236.22;;;37.47;32.01
7768;BME280;3928;42.626;23.382;2023-08-24T11:39:47;94233.59;;;37.32;31.72
7768;BME280;3928;42.626;23.382;2023-08-24T11:42:14;94237.25;;;37.10;31.61
7768;BME280;3928;42.626;23.382;2023-08-24T11:44:45;94249.81;;;36.80;32.23
7768;BME280;3928;42.626;23.382;2023-08-24T11:47:12;94244.28;;;36.67;33.28
7768;BME280;3928;42.626;23.382;2023-08-24T11:49:39;94235.94;;;36.40;33.16
7768;BME280;3928;42.626;23.382;2023-08-24T11:52:06;94216.56;;;35.86;33.42
7768;BME280;3928;42.626;23.382;2023-08-24T11:54:33;94230.25;;;35.68;35.19
7768;BME280;3928;42.626;23.382;2023-08-24T11:57:07;94230.06;;;35.47;34.61
7768;BME280;3928;42.626;23.382;2023-08-24T11:59:34;94224.47;;;35.33;35.84
7768;BME280;3928;42.626;23.382;2023-08-24T12:02:02;94215.88;;;35.23;36.38
7768;BME280;3928;42.626;23.382;2023-08-24T12:04:37;94218.34;;;35.02;35.67
7768;BME280;3928;42.626;23.382;2023-08-24T12:07:08;94218.56;;;34.92;36.71
7768;BME280;3928;42.626;23.382;2023-08-24T12:09:37;94223.25;;;34.90;36.76
7768;BME280;3928;42.626;23.382;2023-08-24T12:12:04;94216.25;;;34.81;36.58
7768;BME280;3928;42.626;23.382;2023-08-24T12:14:41;94216.81;;;34.68;36.15
7768;BME280;3928;42.626;23.382;2023-08-24T12:17:09;94205.56;;;34.58;37.15
7768;BME280;3928;42.626;23.382;2023-08-24T12:19:36;94193.63;;;34.46;37.13
7768;BME280;3928;42.626;23.382;2023-08-24T12:22:03;94216.63;;;34.39;37.29
7768;BME280;3928;42.626;23.382;2023-08-24T12:24:30;94219.94;;;34.33;38.21
7768;BME280;3928;42.626;23.382;2023-08-24T12:26:57;94216.78;;;34.29;38.10
7768;BME280;3928;42.626;23.382;2023-08-24T12:29:25;94223.44;;;34.33;38.35
7768;BME280;3928;42.626;23.382;2023-08-24T12:31:56;94235.97;;;34.24;37.46
7768;BME280;3928;42.626;23.382;2023-08-24T12:34:23;94236.50;;;33.95;38.58
7768;BME280;3928;42.626;23.382;2023-08-24T12:36:50;94236.84;;;33.60;38.28
7768;BME280;3928;42.626;23.382;2023-08-24T12:39:17;94228.03;;;33.35;39.50
7768;BME280;3928;42.626;23.382;2023-08-24T12:41:45;94238.81;;;33.33;40.17
7768;BME280;3928;42.626;23.382;2023-08-24T12:44:12;94230.00;;;33.33;39.98
7768;BME280;3928;42.626;23.382;2023-08-24T12:46:38;94234.50;;;33.32;40.50
7768;BME280;3928;42.626;23.382;2023-08-24T12:49:07;94219.69;;;33.30;40.26
7768;BME280;3928;42.626;23.382;2023-08-24T12:51:33;94231.19;;;33.38;39.43
7768;BME280;3928;42.626;23.382;2023-08-24T12:54:00;94239.63;;;33.26;39.10
7768;BME280;3928;42.626;23.382;2023-08-24T12:56:27;94243.44;;;33.23;39.17
7768;BME280;3928;42.626;23.382;2023-08-24T12:58:54;94255.56;;;33.09;37.70
7768;BME280;3928;42.626;23.382;2023-08-24T13:01:20;94228.56;;;32.80;38.85
7768;BME280;3928;42.626;23.382;2023-08-24T13:03:47;94253.06;;;32.92;38.33
7768;BME280;3928;42.626;23.382;2023-08-24T13:06:15;94250.53;;;32.90;39.79
7768;BME280;3928;42.626;23.382;2023-08-24T13:08:42;94249.81;;;32.80;39.06
7768;BME280;3928;42.626;23.382;2023-08-24T13:11:09;94244.22;;;32.83;39.48
7768;BME280;3928;42.626;23.382;2023-08-24T13:13:36;94244.38;;;32.90;38.59